createdAt,value
2017-04-07T00:00:37.824Z,0
2017-04-07T00:01:37.861Z,0
2017-04-07T00:02:37.894Z,0
2017-04-07T00:03:37.931Z,0
2017-04-07T00:04:37.972Z,0
2017-04-07T00:05:38.020Z,0
2017-04-07T00:06:38.031Z,0
2017-04-07T00:07:38.070Z,0
2017-04-07T00:08:38.108Z,0
2017-04-07T00:09:38.443Z,0
2017-04-07T00:10:38.190Z,0
2017-04-07T00:11:38.517Z,0
2017-04-07T00:12:38.248Z,0
2017-04-07T00:13:38.284Z,0
2017-04-07T00:14:38.327Z,0
2017-04-07T00:15:38.362Z,0
2017-04-07T00:16:38.396Z,0
2017-04-07T00:17:38.430Z,0
2017-04-07T00:18:38.501Z,0
2017-04-07T00:19:38.801Z,0
2017-04-07T00:20:38.541Z,0
2017-04-07T00:21:38.571Z,0
2017-04-07T00:22:38.605Z,0
2017-04-07T00:23:38.640Z,0
2017-04-07T00:24:38.676Z,0
2017-04-07T00:25:38.714Z,0
2017-04-07T00:26:39.355Z,0
2017-04-07T00:27:38.783Z,0
2017-04-07T00:28:39.122Z,0
2017-04-07T00:29:39.153Z,0
2017-04-07T00:30:38.892Z,0
2017-04-07T00:31:39.226Z,0
2017-04-07T00:32:38.959Z,0
2017-04-07T00:33:39.299Z,0
2017-04-07T00:34:39.333Z,0
2017-04-07T00:35:39.065Z,0
2017-04-07T00:36:39.099Z,0
2017-04-07T00:37:39.440Z,0
2017-04-07T00:38:39.169Z,0
2017-04-07T00:39:39.209Z,0
2017-04-07T00:40:39.542Z,0
2017-04-07T00:41:39.576Z,0
2017-04-07T00:42:39.309Z,0
2017-04-07T00:43:39.344Z,0
2017-04-07T00:44:39.685Z,0
2017-04-07T00:45:39.417Z,0
2017-04-07T00:46:39.451Z,0
2017-04-07T00:47:39.488Z,0
2017-04-07T00:48:39.825Z,0
2017-04-07T00:49:39.860Z,0
2017-04-07T00:50:39.595Z,0
2017-04-07T00:51:39.628Z,0
2017-04-07T00:52:39.665Z,0
2017-04-07T00:53:39.697Z,0
2017-04-07T00:54:39.734Z,0
2017-04-07T00:55:39.769Z,0
2017-04-07T00:56:39.805Z,0
2017-04-07T00:57:39.838Z,0
2017-04-07T00:58:39.873Z,0
2017-04-07T00:59:39.913Z,0
2017-04-07T01:00:39.946Z,0
2017-04-07T01:01:39.985Z,0
2017-04-07T01:02:40.321Z,0
2017-04-07T01:03:40.046Z,0
2017-04-07T01:04:40.392Z,0
2017-04-07T01:05:40.420Z,0
2017-04-07T01:06:40.162Z,0
2017-04-07T01:07:40.191Z,0
2017-04-07T01:08:40.227Z,0
2017-04-07T01:09:40.563Z,0
2017-04-07T01:10:40.297Z,0
2017-04-07T01:11:40.633Z,0
2017-04-07T01:12:40.371Z,0
2017-04-07T01:13:40.399Z,0
2017-04-07T01:14:40.434Z,0
2017-04-07T01:15:40.774Z,0
2017-04-07T01:16:40.814Z,0
2017-04-07T01:17:40.843Z,0
2017-04-07T01:18:40.879Z,0
2017-04-07T01:19:40.923Z,0
2017-04-07T01:20:40.644Z,0
2017-04-07T01:21:40.992Z,0
2017-04-07T01:22:40.717Z,0
2017-04-07T01:23:40.757Z,0
2017-04-07T01:24:40.790Z,0
2017-04-07T01:25:41.127Z,0
2017-04-07T01:26:40.860Z,0
2017-04-07T01:27:40.895Z,0
2017-04-07T01:28:40.928Z,0
2017-04-07T01:29:41.570Z,0
2017-04-07T01:30:41.305Z,0
2017-04-07T01:31:41.221Z,0
2017-04-07T01:32:41.072Z,0
2017-04-07T01:33:41.104Z,0
2017-04-07T01:34:41.145Z,0
2017-04-07T01:35:41.475Z,0
2017-04-07T01:36:41.209Z,0
2017-04-07T01:37:41.546Z,0
2017-04-07T01:38:41.277Z,0
2017-04-07T01:39:41.316Z,0
2017-04-07T01:40:41.353Z,0
2017-04-07T01:41:41.387Z,0
2017-04-07T01:42:41.420Z,0
2017-04-07T01:43:41.459Z,0
2017-04-07T01:44:41.489Z,0
2017-04-07T01:45:41.530Z,0
2017-04-07T01:46:41.563Z,0
2017-04-07T01:47:41.594Z,0
2017-04-07T01:48:41.643Z,0
2017-04-07T01:49:41.972Z,0
2017-04-07T01:50:41.706Z,0
2017-04-07T01:51:41.735Z,0
2017-04-07T01:52:41.778Z,0
2017-04-07T01:53:41.805Z,0
2017-04-07T01:54:42.154Z,0
2017-04-07T01:55:42.186Z,0
2017-04-07T01:56:41.913Z,0
2017-04-07T01:57:42.249Z,0
2017-04-07T01:58:41.984Z,0
2017-04-07T01:59:42.626Z,0
2017-04-07T02:00:42.054Z,0
2017-04-07T02:01:42.394Z,0
2017-04-07T02:02:42.120Z,0
2017-04-07T02:03:42.161Z,0
2017-04-07T02:04:42.498Z,0
2017-04-07T02:05:42.533Z,0
2017-04-07T02:06:42.264Z,0
2017-04-07T02:07:42.301Z,0
2017-04-07T02:08:42.941Z,0
2017-04-07T02:09:42.672Z,0
2017-04-07T02:10:42.707Z,0
2017-04-07T02:11:42.436Z,0
2017-04-07T02:12:42.470Z,0
2017-04-07T02:13:42.816Z,0
2017-04-07T02:14:42.851Z,0
2017-04-07T02:15:42.884Z,0
2017-04-07T02:16:42.914Z,0
2017-04-07T02:17:42.684Z,0
2017-04-07T02:18:42.684Z,0
2017-04-07T02:19:43.029Z,0
2017-04-07T02:20:42.761Z,0
2017-04-07T02:21:42.793Z,0
2017-04-07T02:22:42.845Z,0
2017-04-07T02:23:42.863Z,0
2017-04-07T02:24:42.896Z,0
2017-04-07T02:25:42.945Z,0
2017-04-07T02:26:42.968Z,0
2017-04-07T02:27:43.002Z,0
2017-04-07T02:28:43.038Z,0
2017-04-07T02:29:43.375Z,0
2017-04-07T02:30:43.404Z,0
2017-04-07T02:31:43.144Z,0
2017-04-07T02:32:43.189Z,0
2017-04-07T02:33:43.818Z,0
2017-04-07T02:34:43.248Z,0
2017-04-07T02:35:43.587Z,0
2017-04-07T02:36:43.320Z,0
2017-04-07T02:37:43.356Z,0
2017-04-07T02:38:43.387Z,0
2017-04-07T02:39:43.737Z,0
2017-04-07T02:40:43.463Z,0
2017-04-07T02:41:43.800Z,0
2017-04-07T02:42:43.836Z,0
2017-04-07T02:43:43.560Z,0
2017-04-07T02:44:43.901Z,0
2017-04-07T02:45:43.640Z,0
2017-04-07T02:46:43.976Z,0
2017-04-07T02:47:43.702Z,0
2017-04-07T02:48:43.742Z,0
2017-04-07T02:49:43.774Z,0
2017-04-07T02:50:44.113Z,0
2017-04-07T02:51:43.846Z,0
2017-04-07T02:52:44.184Z,0
2017-04-07T02:53:43.914Z,0
2017-04-07T02:54:43.948Z,0
2017-04-07T02:55:43.985Z,0
2017-04-07T02:56:44.327Z,0
2017-04-07T02:57:44.058Z,0
2017-04-07T02:58:44.092Z,0
2017-04-07T02:59:44.123Z,0
2017-04-07T03:00:44.157Z,0
2017-04-07T03:01:44.194Z,0
2017-04-07T03:02:44.231Z,0
2017-04-07T03:03:44.260Z,0
2017-04-07T03:04:44.299Z,0
2017-04-07T03:05:44.334Z,0
2017-04-07T03:06:44.677Z,0
2017-04-07T03:07:44.704Z,0
2017-04-07T03:08:44.439Z,0
2017-04-07T03:09:44.492Z,0
2017-04-07T03:10:44.501Z,0
2017-04-07T03:11:44.544Z,0
2017-04-07T03:12:44.580Z,0
2017-04-07T03:13:44.607Z,0
2017-04-07T03:14:44.654Z,0
2017-04-07T03:15:44.980Z,0
2017-04-07T03:16:45.021Z,0
2017-04-07T03:17:45.052Z,0
2017-04-07T03:18:44.786Z,0
2017-04-07T03:19:45.135Z,0
2017-04-07T03:20:44.859Z,0
2017-04-07T03:21:45.193Z,0
2017-04-07T03:22:44.925Z,0
2017-04-07T03:23:44.957Z,0
2017-04-07T03:24:45.001Z,0
2017-04-07T03:25:45.029Z,0
2017-04-07T03:26:45.067Z,0
2017-04-07T03:27:45.100Z,0
2017-04-07T03:28:45.137Z,0
2017-04-07T03:29:45.477Z,0
2017-04-07T03:30:45.204Z,0
2017-04-07T03:31:45.246Z,0
2017-04-07T03:32:45.576Z,0
2017-04-07T03:33:45.611Z,0
2017-04-07T03:34:45.340Z,0
2017-04-07T03:35:45.373Z,0
2017-04-07T03:36:45.428Z,0
2017-04-07T03:37:45.444Z,0
2017-04-07T03:38:46.098Z,0
2017-04-07T03:39:45.513Z,0
2017-04-07T03:40:45.564Z,0
2017-04-07T03:41:45.585Z,0
2017-04-07T03:42:45.922Z,0
2017-04-07T03:43:45.652Z,0
2017-04-07T03:44:46.506Z,0
2017-04-07T03:45:45.722Z,0
2017-04-07T03:46:45.761Z,0
2017-04-07T03:47:45.791Z,0
2017-04-07T03:48:46.135Z,0
2017-04-07T03:49:45.858Z,0
2017-04-07T03:50:46.201Z,0
2017-04-07T03:51:46.237Z,0
2017-04-07T03:52:45.964Z,0
2017-04-07T03:53:46.010Z,0
2017-04-07T03:54:46.033Z,0
2017-04-07T03:55:46.072Z,0
2017-04-07T03:56:46.102Z,0
2017-04-07T03:57:46.165Z,0
2017-04-07T03:58:46.173Z,0
2017-04-07T03:59:46.514Z,0
2017-04-07T04:00:46.545Z,0
2017-04-07T04:01:46.283Z,4
2017-04-07T04:02:46.311Z,4
2017-04-07T04:03:46.346Z,0
2017-04-07T04:04:46.376Z,4
2017-04-07T04:05:46.419Z,4
2017-04-07T04:06:46.754Z,4
2017-04-07T04:07:46.487Z,4
2017-04-07T04:08:46.522Z,4
2017-04-07T04:09:46.853Z,4
2017-04-07T04:10:46.615Z,4
2017-04-07T04:11:46.622Z,8
2017-04-07T04:12:46.658Z,8
2017-04-07T04:13:46.993Z,8
2017-04-07T04:14:46.724Z,8
2017-04-07T04:15:46.757Z,12
2017-04-07T04:16:46.798Z,16
2017-04-07T04:17:46.827Z,16
2017-04-07T04:18:47.168Z,20
2017-04-07T04:19:46.902Z,20
2017-04-07T04:20:46.928Z,20
2017-04-07T04:21:46.965Z,24
2017-04-07T04:22:47.602Z,28
2017-04-07T04:23:47.336Z,28
2017-04-07T04:24:47.072Z,36
2017-04-07T04:25:47.418Z,36
2017-04-07T04:26:47.144Z,40
2017-04-07T04:27:47.170Z,48
2017-04-07T04:28:47.210Z,52
2017-04-07T04:29:47.239Z,52
2017-04-07T04:30:47.579Z,56
2017-04-07T04:31:47.308Z,56
2017-04-07T04:32:47.346Z,64
2017-04-07T04:33:47.388Z,68
2017-04-07T04:34:47.411Z,84
2017-04-07T04:35:47.448Z,92
2017-04-07T04:36:47.480Z,104
2017-04-07T04:37:47.553Z,116
2017-04-07T04:38:47.766Z,124
2017-04-07T04:39:47.581Z,140
2017-04-07T04:40:47.620Z,136
2017-04-07T04:41:47.651Z,160
2017-04-07T04:42:47.689Z,176
2017-04-07T04:43:48.022Z,208
2017-04-07T04:44:48.054Z,196
2017-04-07T04:45:48.115Z,224
2017-04-07T04:46:47.828Z,252
2017-04-07T04:47:47.861Z,252
2017-04-07T04:48:47.893Z,264
2017-04-07T04:49:48.236Z,260
2017-04-07T04:50:47.968Z,268
2017-04-07T04:51:48.007Z,288
2017-04-07T04:52:48.032Z,288
2017-04-07T04:53:48.370Z,316
2017-04-07T04:54:48.099Z,332
2017-04-07T04:55:48.138Z,328
2017-04-07T04:56:48.174Z,340
2017-04-07T04:57:48.203Z,360
2017-04-07T04:58:48.243Z,364
2017-04-07T04:59:48.272Z,344
2017-04-07T05:00:48.321Z,328
2017-04-07T05:01:48.349Z,308
2017-04-07T05:02:48.378Z,300
2017-04-07T05:03:50.493Z,320
2017-04-07T05:04:48.446Z,320
2017-04-07T05:05:48.483Z,332
2017-04-07T05:06:48.828Z,352
2017-04-07T05:07:48.557Z,360
2017-04-07T05:08:48.914Z,384
2017-04-07T05:09:48.625Z,428
2017-04-07T05:10:48.655Z,452
2017-04-07T05:11:48.993Z,460
2017-04-07T05:12:48.753Z,480
2017-04-07T05:13:48.753Z,524
2017-04-07T05:14:48.796Z,608
2017-04-07T05:15:48.824Z,620
2017-04-07T05:16:48.863Z,668
2017-04-07T05:17:48.894Z,648
2017-04-07T05:18:48.926Z,616
2017-04-07T05:19:48.964Z,648
2017-04-07T05:20:49.002Z,656
2017-04-07T05:21:49.033Z,696
2017-04-07T05:22:49.104Z,712
2017-04-07T05:23:49.101Z,804
2017-04-07T05:24:49.536Z,848
2017-04-07T05:25:49.474Z,880
2017-04-07T05:26:49.208Z,960
2017-04-07T05:27:49.549Z,908
2017-04-07T05:28:49.582Z,1028
2017-04-07T05:29:49.913Z,1160
2017-04-07T05:30:49.370Z,1156
2017-04-07T05:31:49.685Z,1144
2017-04-07T05:32:49.437Z,1112
2017-04-07T05:33:49.449Z,1240
2017-04-07T05:34:49.488Z,1172
2017-04-07T05:35:49.519Z,1176
2017-04-07T05:36:49.553Z,1164
2017-04-07T05:37:49.583Z,1184
2017-04-07T05:38:49.930Z,1128
2017-04-07T05:39:49.656Z,1064
2017-04-07T05:40:49.690Z,1072
2017-04-07T05:41:49.731Z,1056
2017-04-07T05:42:49.760Z,1048
2017-04-07T05:43:50.104Z,1040
2017-04-07T05:44:50.132Z,1040
2017-04-07T05:45:50.166Z,972
2017-04-07T05:46:49.903Z,896
2017-04-07T05:47:49.934Z,820
2017-04-07T05:48:49.966Z,776
2017-04-07T05:49:50.003Z,776
2017-04-07T05:50:50.038Z,784
2017-04-07T05:51:50.073Z,800
2017-04-07T05:52:50.107Z,832
2017-04-07T05:53:50.153Z,792
2017-04-07T05:54:50.484Z,836
2017-04-07T05:55:50.218Z,928
2017-04-07T05:56:50.549Z,960
2017-04-07T05:57:50.286Z,920
2017-04-07T05:58:50.322Z,896
2017-04-07T05:59:50.390Z,896
2017-04-07T06:00:50.388Z,900
2017-04-07T06:01:51.540Z,968
2017-04-07T06:02:51.098Z,960
2017-04-07T06:03:50.486Z,964
2017-04-07T06:04:50.531Z,1000
2017-04-07T06:05:50.561Z,1032
2017-04-07T06:06:50.596Z,1052
2017-04-07T06:07:50.626Z,1100
2017-04-07T06:08:50.667Z,1136
2017-04-07T06:09:50.998Z,1128
2017-04-07T06:10:50.742Z,1092
2017-04-07T06:11:50.763Z,1044
2017-04-07T06:12:50.801Z,1016
2017-04-07T06:13:51.178Z,1012
2017-04-07T06:14:50.874Z,984
2017-04-07T06:15:50.911Z,1000
2017-04-07T06:16:50.940Z,1012
2017-04-07T06:17:50.984Z,1032
2017-04-07T06:18:51.069Z,1084
2017-04-07T06:19:51.046Z,1128
2017-04-07T06:20:51.086Z,1188
2017-04-07T06:21:51.118Z,1148
2017-04-07T06:22:51.461Z,1112
2017-04-07T06:23:51.498Z,1080
2017-04-07T06:24:51.228Z,1076
2017-04-07T06:25:51.283Z,1052
2017-04-07T06:26:51.294Z,1032
2017-04-07T06:27:51.627Z,1076
2017-04-07T06:28:51.362Z,1124
2017-04-07T06:29:51.391Z,1156
2017-04-07T06:30:51.430Z,1220
2017-04-07T06:31:51.460Z,1332
2017-04-07T06:32:51.496Z,1348
2017-04-07T06:33:51.567Z,1424
2017-04-07T06:34:51.570Z,1428
2017-04-07T06:35:51.618Z,1384
2017-04-07T06:36:51.694Z,1512
2017-04-07T06:37:51.676Z,1484
2017-04-07T06:38:51.714Z,1556
2017-04-07T06:39:51.743Z,1584
2017-04-07T06:40:52.109Z,1520
2017-04-07T06:41:52.113Z,1488
2017-04-07T06:42:52.146Z,1552
2017-04-07T06:43:51.880Z,1456
2017-04-07T06:44:51.915Z,1288
2017-04-07T06:45:51.986Z,1220
2017-04-07T06:46:52.227Z,1132
2017-04-07T06:47:52.021Z,1088
2017-04-07T06:48:52.057Z,1136
2017-04-07T06:49:52.096Z,1324
2017-04-07T06:50:52.731Z,1500
2017-04-07T06:51:52.178Z,1660
2017-04-07T06:52:52.270Z,1680
2017-04-07T06:53:52.278Z,1792
2017-04-07T06:54:52.266Z,1584
2017-04-07T06:55:52.302Z,1512
2017-04-07T06:56:52.646Z,1496
2017-04-07T06:57:52.453Z,1468
2017-04-07T06:58:52.790Z,1400
2017-04-07T06:59:52.439Z,1420
2017-04-07T07:00:52.467Z,1396
2017-04-07T07:01:52.543Z,1504
2017-04-07T07:02:52.582Z,1544
2017-04-07T07:03:52.575Z,1528
2017-04-07T07:04:52.616Z,1720
2017-04-07T07:05:52.656Z,1776
2017-04-07T07:06:52.706Z,1904
2017-04-07T07:07:52.722Z,2004
2017-04-07T07:08:52.751Z,2020
2017-04-07T07:09:53.388Z,1996
2017-04-07T07:10:52.821Z,2072
2017-04-07T07:11:53.164Z,2064
2017-04-07T07:12:52.890Z,1840
2017-04-07T07:13:52.933Z,1900
2017-04-07T07:14:52.960Z,1860
2017-04-07T07:15:53.010Z,1632
2017-04-07T07:16:53.061Z,1680
2017-04-07T07:17:53.108Z,1608
2017-04-07T07:18:53.099Z,1644
2017-04-07T07:19:53.136Z,1632
2017-04-07T07:20:53.166Z,1608
2017-04-07T07:21:53.506Z,1684
2017-04-07T07:22:53.235Z,1876
2017-04-07T07:23:53.274Z,1704
2017-04-07T07:24:53.309Z,1812
2017-04-07T07:25:53.345Z,1944
2017-04-07T07:26:53.377Z,1860
2017-04-07T07:27:53.417Z,1836
2017-04-07T07:28:53.445Z,1840
2017-04-07T07:29:53.780Z,2216
2017-04-07T07:30:53.512Z,1892
2017-04-07T07:31:53.548Z,2012
2017-04-07T07:32:53.596Z,1964
2017-04-07T07:33:53.619Z,1928
2017-04-07T07:34:53.655Z,1760
2017-04-07T07:35:53.991Z,1704
2017-04-07T07:36:53.727Z,1792
2017-04-07T07:37:53.753Z,1776
2017-04-07T07:38:54.095Z,1824
2017-04-07T07:39:53.831Z,1556
2017-04-07T07:40:53.879Z,1720
2017-04-07T07:41:54.236Z,1860
2017-04-07T07:42:53.937Z,1920
2017-04-07T07:43:53.968Z,1672
2017-04-07T07:44:53.998Z,1720
2017-04-07T07:45:55.954Z,1540
2017-04-07T07:46:56.574Z,1516
2017-04-07T07:47:54.116Z,1468
2017-04-07T07:48:55.175Z,1348
2017-04-07T07:49:55.164Z,1380
2017-04-07T07:50:54.207Z,1476
2017-04-07T07:51:54.241Z,1468
2017-04-07T07:52:54.615Z,1456
2017-04-07T07:53:54.607Z,1416
2017-04-07T07:54:54.384Z,1504
2017-04-07T07:55:54.686Z,1380
2017-04-07T07:56:54.719Z,1384
2017-04-07T07:57:54.753Z,1340
2017-04-07T07:58:54.484Z,1348
2017-04-07T07:59:55.149Z,1612
2017-04-07T08:00:54.687Z,1624
2017-04-07T08:01:54.890Z,1640
2017-04-07T08:02:54.628Z,1636
2017-04-07T08:03:54.657Z,1892
2017-04-07T08:04:54.994Z,1696
2017-04-07T08:05:54.727Z,1868
2017-04-07T08:06:55.061Z,2068
2017-04-07T08:07:54.796Z,1968
2017-04-07T08:08:55.135Z,2056
2017-04-07T08:09:54.863Z,2100
2017-04-07T08:10:54.899Z,2364
2017-04-07T08:11:55.244Z,2112
2017-04-07T08:12:55.270Z,1924
2017-04-07T08:13:55.004Z,1896
2017-04-07T08:14:55.035Z,2100
2017-04-07T08:15:55.375Z,2264
2017-04-07T08:16:55.409Z,2508
2017-04-07T08:17:55.143Z,2572
2017-04-07T08:18:55.179Z,2660
2017-04-07T08:19:55.209Z,2468
2017-04-07T08:20:55.245Z,2676
2017-04-07T08:21:55.290Z,2856
2017-04-07T08:22:55.328Z,2936
2017-04-07T08:23:55.528Z,2620
2017-04-07T08:24:55.416Z,2400
2017-04-07T08:25:55.419Z,2708
2017-04-07T08:26:55.460Z,2592
2017-04-07T08:27:55.498Z,2792
2017-04-07T08:28:55.519Z,2852
2017-04-07T08:29:55.856Z,3196
2017-04-07T08:30:55.590Z,3224
2017-04-07T08:31:55.637Z,3064
2017-04-07T08:32:55.659Z,2960
2017-04-07T08:33:55.692Z,3024
2017-04-07T08:34:55.733Z,2372
2017-04-07T08:35:55.767Z,2792
2017-04-07T08:36:55.804Z,2768
2017-04-07T08:37:55.860Z,2512
2017-04-07T08:38:56.181Z,2504
2017-04-07T08:39:55.900Z,2944
2017-04-07T08:40:55.934Z,2788
2017-04-07T08:41:57.182Z,2672
2017-04-07T08:42:56.009Z,2764
2017-04-07T08:43:56.047Z,2748
2017-04-07T08:44:56.074Z,2608
2017-04-07T08:45:56.417Z,2948
2017-04-07T08:46:56.445Z,3324
2017-04-07T08:47:56.178Z,2752
2017-04-07T08:48:56.216Z,3604
2017-04-07T08:49:56.243Z,3620
2017-04-07T08:50:56.317Z,4140
2017-04-07T08:51:56.323Z,4100
2017-04-07T08:52:56.663Z,3596
2017-04-07T08:53:56.507Z,3472
2017-04-07T08:54:56.719Z,3644
2017-04-07T08:55:56.454Z,3820
2017-04-07T08:56:58.184Z,4032
2017-04-07T08:57:56.828Z,3972
2017-04-07T08:58:56.644Z,4496
2017-04-07T08:59:56.602Z,3508
2017-04-07T09:00:57.021Z,3292
2017-04-07T09:01:56.673Z,3360
2017-04-07T09:02:57.590Z,3248
2017-04-07T09:03:56.729Z,3024
2017-04-07T09:04:56.770Z,4224
2017-04-07T09:05:56.819Z,3632
2017-04-07T09:06:56.838Z,3680
2017-04-07T09:07:56.902Z,3488
2017-04-07T09:08:56.911Z,3784
2017-04-07T09:09:56.947Z,3744
2017-04-07T09:10:56.984Z,3272
2017-04-07T09:11:57.326Z,3404
2017-04-07T09:12:57.067Z,3164
2017-04-07T09:13:57.394Z,3860
2017-04-07T09:14:57.112Z,4492
2017-04-07T09:15:57.453Z,4708
2017-04-07T09:16:57.187Z,4848
2017-04-07T09:17:57.230Z,4496
2017-04-07T09:18:57.261Z,4052
2017-04-07T09:19:57.292Z,4304
2017-04-07T09:20:57.325Z,5056
2017-04-07T09:21:57.376Z,5424
2017-04-07T09:22:57.393Z,4596
2017-04-07T09:23:57.431Z,4820
2017-04-07T09:24:57.465Z,4128
2017-04-07T09:25:57.502Z,4088
2017-04-07T09:26:58.011Z,2928
2017-04-07T09:27:57.575Z,4452
2017-04-07T09:28:57.601Z,3856
2017-04-07T09:29:57.636Z,4436
2017-04-07T09:30:57.742Z,3892
2017-04-07T09:31:57.719Z,4516
2017-04-07T09:32:57.748Z,4180
2017-04-07T09:33:57.783Z,4744
2017-04-07T09:34:58.122Z,4728
2017-04-07T09:35:57.844Z,4736
2017-04-07T09:36:58.192Z,4132
2017-04-07T09:37:57.920Z,4928
2017-04-07T09:38:58.250Z,5284
2017-04-07T09:39:57.992Z,5092
2017-04-07T09:40:58.043Z,4716
2017-04-07T09:41:58.360Z,5116
2017-04-07T09:42:58.088Z,5960
2017-04-07T09:43:58.128Z,5540
2017-04-07T09:44:58.159Z,5328
2017-04-07T09:45:58.199Z,4464
2017-04-07T09:46:58.540Z,4452
2017-04-07T09:47:58.583Z,3472
2017-04-07T09:48:58.310Z,4012
2017-04-07T09:49:58.350Z,3984
2017-04-07T09:50:58.668Z,4104
2017-04-07T09:51:58.405Z,3912
2017-04-07T09:52:58.435Z,4448
2017-04-07T09:53:58.481Z,4440
2017-04-07T09:54:58.510Z,5568
2017-04-07T09:55:58.543Z,6200
2017-04-07T09:56:58.582Z,6096
2017-04-07T09:57:58.930Z,4604
2017-04-07T09:58:58.747Z,5092
2017-04-07T09:59:58.985Z,5500
2017-04-07T10:00:58.854Z,7080
2017-04-07T10:01:59.059Z,7476
2017-04-07T10:02:58.865Z,6688
2017-04-07T10:03:58.837Z,6824
2017-04-07T10:04:58.868Z,6568
2017-04-07T10:05:58.929Z,8092
2017-04-07T10:06:58.937Z,7780
2017-04-07T10:07:58.976Z,8020
2017-04-07T10:08:58.996Z,6432
2017-04-07T10:09:59.046Z,6528
2017-04-07T10:10:59.074Z,7240
2017-04-07T10:11:59.115Z,7384
2017-04-07T10:12:59.144Z,6856
2017-04-07T10:13:59.478Z,6624
2017-04-07T10:14:59.511Z,6792
2017-04-07T10:15:59.388Z,6948
2017-04-07T10:16:59.347Z,6932
2017-04-07T10:17:59.631Z,6916
2017-04-07T10:18:59.351Z,7788
2017-04-07T10:19:59.387Z,8448
2017-04-07T10:20:59.770Z,10380
2017-04-07T10:21:59.801Z,9900
2017-04-07T10:22:59.494Z,8932
2017-04-07T10:23:59.528Z,8732
2017-04-07T10:24:59.594Z,7828
2017-04-07T10:25:59.607Z,7284
2017-04-07T10:26:59.770Z,5996
2017-04-07T10:27:59.680Z,5592
2017-04-07T10:29:02.877Z,4772
2017-04-07T10:30:00.357Z,4696
2017-04-07T10:31:00.105Z,5208
2017-04-07T10:31:59.959Z,4700
2017-04-07T10:32:59.856Z,4784
2017-04-07T10:33:59.892Z,5040
2017-04-07T10:35:00.868Z,6556
2017-04-07T10:36:00.562Z,7032
2017-04-07T10:37:00.301Z,6948
2017-04-07T10:38:00.022Z,6820
2017-04-07T10:39:00.070Z,5928
2017-04-07T10:40:00.095Z,6272
2017-04-07T10:41:00.435Z,5576
2017-04-07T10:42:01.014Z,6400
2017-04-07T10:43:00.310Z,5928
2017-04-07T10:44:00.327Z,6804
2017-04-07T10:45:00.271Z,6152
2017-04-07T10:46:01.078Z,5800
2017-04-07T10:47:00.342Z,5084
2017-04-07T10:48:00.378Z,4232
2017-04-07T10:49:00.418Z,4216
2017-04-07T10:50:00.452Z,3840
2017-04-07T10:51:00.789Z,5032
2017-04-07T10:52:00.518Z,5024
2017-04-07T10:53:00.553Z,4596
2017-04-07T10:54:00.587Z,4268
2017-04-07T10:55:00.653Z,4776
2017-04-07T10:56:00.667Z,4868
2017-04-07T10:57:00.699Z,5352
2017-04-07T10:58:00.730Z,4472
2017-04-07T10:59:00.768Z,4288
2017-04-07T11:00:00.807Z,3612
2017-04-07T11:01:00.907Z,3896
2017-04-07T11:02:00.872Z,4224
2017-04-07T11:03:00.904Z,4392
2017-04-07T11:04:00.979Z,5088
2017-04-07T11:05:01.010Z,5844
2017-04-07T11:06:01.033Z,6236
2017-04-07T11:07:01.054Z,7100
2017-04-07T11:08:01.115Z,5684
2017-04-07T11:09:01.143Z,4412
2017-04-07T11:10:01.458Z,5224
2017-04-07T11:11:01.202Z,5012
2017-04-07T11:12:01.223Z,3924
2017-04-07T11:13:01.260Z,3992
2017-04-07T11:14:01.903Z,3588
2017-04-07T11:15:01.631Z,3836
2017-04-07T11:16:01.677Z,4212
2017-04-07T11:17:01.403Z,4500
2017-04-07T11:18:01.744Z,4796
2017-04-07T11:19:01.775Z,4600
2017-04-07T11:20:01.506Z,4556
2017-04-07T11:21:01.550Z,4188
2017-04-07T11:22:01.583Z,5620
2017-04-07T11:23:01.619Z,6000
2017-04-07T11:24:01.681Z,5460
2017-04-07T11:25:01.689Z,5216
2017-04-07T11:26:01.720Z,4136
2017-04-07T11:27:02.053Z,4020
2017-04-07T11:28:01.786Z,4292
2017-04-07T11:29:01.822Z,3752
2017-04-07T11:30:01.853Z,3124
2017-04-07T11:31:01.896Z,3552
2017-04-07T11:32:01.937Z,5496
2017-04-07T11:33:01.971Z,5012
2017-04-07T11:34:02.340Z,6756
2017-04-07T11:35:02.040Z,5132
2017-04-07T11:36:02.371Z,5520
2017-04-07T11:37:02.110Z,5924
2017-04-07T11:38:02.141Z,5220
2017-04-07T11:39:02.175Z,4160
2017-04-07T11:40:02.210Z,3812
2017-04-07T11:41:02.552Z,3760
2017-04-07T11:42:02.277Z,3568
2017-04-07T11:43:02.318Z,3412
2017-04-07T11:44:02.354Z,3676
2017-04-07T11:45:02.389Z,3504
2017-04-07T11:46:02.724Z,4280
2017-04-07T11:47:02.775Z,4520
2017-04-07T11:48:02.499Z,5620
2017-04-07T11:49:02.526Z,4656
2017-04-07T11:50:02.867Z,6040
2017-04-07T11:51:02.601Z,6676
2017-04-07T11:52:02.643Z,5252
2017-04-07T11:53:02.975Z,4096
2017-04-07T11:54:02.705Z,5028
2017-04-07T11:55:02.739Z,4332
2017-04-07T11:56:02.774Z,4620
2017-04-07T11:57:02.821Z,5176
2017-04-07T11:58:02.904Z,5200
2017-04-07T11:59:03.188Z,4764
2017-04-07T12:00:03.219Z,4660
2017-04-07T12:01:03.264Z,5400
2017-04-07T12:02:02.995Z,5488
2017-04-07T12:03:03.045Z,4344
2017-04-07T12:04:03.071Z,4824
2017-04-07T12:05:03.102Z,4860
2017-04-07T12:06:03.133Z,4244
2017-04-07T12:07:03.472Z,4100
2017-04-07T12:08:03.201Z,3780
2017-04-07T12:09:03.275Z,3504
2017-04-07T12:10:03.623Z,3428
2017-04-07T12:11:03.310Z,3868
2017-04-07T12:12:03.341Z,3364
2017-04-07T12:13:03.677Z,3504
2017-04-07T12:14:03.733Z,3568
2017-04-07T12:15:03.447Z,3964
2017-04-07T12:16:03.792Z,3576
2017-04-07T12:17:03.540Z,3220
2017-04-07T12:18:03.555Z,3672
2017-04-07T12:19:03.595Z,3404
2017-04-07T12:20:03.635Z,3552
2017-04-07T12:21:03.660Z,3280
2017-04-07T12:22:03.699Z,3080
2017-04-07T12:23:03.736Z,2788
2017-04-07T12:24:04.073Z,3036
2017-04-07T12:25:04.109Z,3452
2017-04-07T12:26:04.136Z,3184
2017-04-07T12:27:04.168Z,3460
2017-04-07T12:28:03.903Z,3156
2017-04-07T12:29:04.249Z,3260
2017-04-07T12:30:03.981Z,3832
2017-04-07T12:31:04.009Z,3240
2017-04-07T12:32:04.353Z,3116
2017-04-07T12:33:04.091Z,3516
2017-04-07T12:34:04.426Z,3984
2017-04-07T12:35:04.162Z,3968
2017-04-07T12:36:04.704Z,4180
2017-04-07T12:37:04.235Z,3844
2017-04-07T12:38:04.566Z,4620
2017-04-07T12:39:04.304Z,4288
2017-04-07T12:40:04.955Z,3992
2017-04-07T12:41:04.367Z,3696
2017-04-07T12:42:04.703Z,4252
2017-04-07T12:43:04.440Z,3976
2017-04-07T12:44:04.785Z,3592
2017-04-07T12:45:04.513Z,3888
2017-04-07T12:46:04.848Z,3188
2017-04-07T12:47:04.581Z,2952
2017-04-07T12:48:04.920Z,3096
2017-04-07T12:49:04.957Z,3100
2017-04-07T12:50:04.687Z,2732
2017-04-07T12:51:04.721Z,2352
2017-04-07T12:52:05.361Z,2188
2017-04-07T12:53:04.788Z,2008
2017-04-07T12:54:04.828Z,1980
2017-04-07T12:55:04.871Z,2268
2017-04-07T12:56:05.203Z,2704
2017-04-07T12:57:04.933Z,3912
2017-04-07T12:58:04.969Z,2976
2017-04-07T12:59:05.002Z,2492
2017-04-07T13:00:05.042Z,2304
2017-04-07T13:01:05.377Z,2780
2017-04-07T13:02:05.108Z,3216
2017-04-07T13:03:05.408Z,3464
2017-04-07T13:04:05.487Z,3568
2017-04-07T13:05:05.524Z,2856
2017-04-07T13:06:05.622Z,3124
2017-04-07T13:07:05.900Z,3780
2017-04-07T13:08:05.579Z,3704
2017-04-07T13:09:05.659Z,3360
2017-04-07T13:10:05.690Z,2968
2017-04-07T13:11:05.731Z,2676
2017-04-07T13:12:05.460Z,2780
2017-04-07T13:13:05.802Z,3148
2017-04-07T13:14:05.528Z,3076
2017-04-07T13:15:05.579Z,3084
2017-04-07T13:16:05.608Z,3084
2017-04-07T13:17:05.938Z,3060
2017-04-07T13:18:05.677Z,3312
2017-04-07T13:19:05.704Z,3708
2017-04-07T13:20:05.739Z,3372
2017-04-07T13:21:05.775Z,3388
2017-04-07T13:22:05.812Z,2936
2017-04-07T13:23:05.855Z,2536
2017-04-07T13:24:06.194Z,2480
2017-04-07T13:25:05.915Z,2372
2017-04-07T13:26:06.265Z,2308
2017-04-07T13:27:06.001Z,2844
2017-04-07T13:28:06.024Z,3044
2017-04-07T13:29:06.053Z,2640
2017-04-07T13:30:06.407Z,2572
2017-04-07T13:31:06.136Z,2616
2017-04-07T13:32:06.179Z,2672
2017-04-07T13:33:06.504Z,3436
2017-04-07T13:34:06.244Z,3616
2017-04-07T13:35:06.275Z,3852
2017-04-07T13:36:06.923Z,4376
2017-04-07T13:37:06.345Z,4192
2017-04-07T13:38:06.382Z,4536
2017-04-07T13:39:06.719Z,4180
2017-04-07T13:40:06.452Z,3656
2017-04-07T13:41:07.099Z,3436
2017-04-07T13:42:06.825Z,3316
2017-04-07T13:43:06.870Z,3352
2017-04-07T13:44:06.599Z,3384
2017-04-07T13:45:06.629Z,3368
2017-04-07T13:46:06.673Z,3272
2017-04-07T13:47:06.697Z,3516
2017-04-07T13:48:07.048Z,3548